createdAt,value
2022-11-23T00:00:30.553Z,3.00
2022-11-23T00:01:31.129Z,3.10
2022-11-23T00:02:30.561Z,3.40
2022-11-23T00:03:30.530Z,3.50
2022-11-23T00:04:30.489Z,3.50
2022-11-23T00:05:30.487Z,3.40
2022-11-23T00:06:30.421Z,3.00
2022-11-23T00:07:30.527Z,3.60
2022-11-23T00:08:30.445Z,3.30
2022-11-23T00:09:30.819Z,3.40
2022-11-23T00:10:30.466Z,3.10
2022-11-23T00:11:30.374Z,3.20
2022-11-23T00:12:30.378Z,3.40
2022-11-23T00:13:30.356Z,3.60
2022-11-23T00:14:30.338Z,3.20
2022-11-23T00:15:31.331Z,3.60
2022-11-23T00:16:30.328Z,3.50
2022-11-23T00:17:30.314Z,3.10
2022-11-23T00:18:30.319Z,3.30
2022-11-23T00:19:31.042Z,3.20
2022-11-23T00:20:30.266Z,3.70
2022-11-23T00:21:30.286Z,3.50
2022-11-23T00:22:30.270Z,3.50
2022-11-23T00:23:30.230Z,3.60
2022-11-23T00:24:30.279Z,3.30
2022-11-23T00:25:30.219Z,3.50
2022-11-23T00:26:30.249Z,3.20
2022-11-23T00:27:30.312Z,3.20
2022-11-23T00:28:30.275Z,3.40
2022-11-23T00:29:30.575Z,3.80
2022-11-23T00:30:30.263Z,3.60
2022-11-23T00:31:30.224Z,3.80
2022-11-23T00:32:30.306Z,3.60
2022-11-23T00:33:30.189Z,3.20
2022-11-23T00:34:30.132Z,3.70
2022-11-23T00:35:30.417Z,3.40
2022-11-23T00:36:30.147Z,3.80
2022-11-23T00:37:30.299Z,3.70
2022-11-23T00:38:30.109Z,3.70
2022-11-23T00:39:30.418Z,4.00
2022-11-23T00:40:30.100Z,3.90
2022-11-23T00:41:30.261Z,4.00
2022-11-23T00:42:35.120Z,4.10
2022-11-23T00:43:31.063Z,4.00
2022-11-23T00:44:30.087Z,4.00
2022-11-23T00:45:30.049Z,4.10
2022-11-23T00:46:30.077Z,4.40
2022-11-23T00:47:30.019Z,4.00
2022-11-23T00:48:29.964Z,4.30
2022-11-23T00:49:30.266Z,4.00
2022-11-23T00:50:29.946Z,4.50
2022-11-23T00:51:30.000Z,4.10
2022-11-23T00:52:29.933Z,4.40
2022-11-23T00:53:29.988Z,3.70
2022-11-23T00:54:29.956Z,4.10
2022-11-23T00:55:29.976Z,4.10
2022-11-23T00:56:30.010Z,4.40
2022-11-23T00:57:29.924Z,4.00
2022-11-23T00:58:29.878Z,4.00
2022-11-23T00:59:30.259Z,4.30
2022-11-23T01:00:29.848Z,4.40
2022-11-23T01:01:30.876Z,4.20
2022-11-23T01:02:29.860Z,4.20
2022-11-23T01:03:29.874Z,4.60
2022-11-23T01:04:29.921Z,3.90
2022-11-23T01:05:29.783Z,4.20
2022-11-23T01:06:29.857Z,4.00
2022-11-23T01:07:29.834Z,4.10
2022-11-23T01:08:29.836Z,4.00
2022-11-23T01:09:30.116Z,4.40
2022-11-23T01:10:29.835Z,4.40
2022-11-23T01:11:29.786Z,4.60
2022-11-23T01:12:29.776Z,4.20
2022-11-23T01:13:29.692Z,4.30
2022-11-23T01:14:29.832Z,4.40
2022-11-23T01:15:29.702Z,4.30
2022-11-23T01:16:29.693Z,3.90
2022-11-23T01:17:29.697Z,4.10
2022-11-23T01:18:29.774Z,3.90
2022-11-23T01:19:30.040Z,3.70
2022-11-23T01:20:29.613Z,4.20
2022-11-23T01:21:29.633Z,3.60
2022-11-23T01:22:29.645Z,4.40
2022-11-23T01:23:29.595Z,4.10
2022-11-23T01:24:29.673Z,3.60
2022-11-23T01:25:29.601Z,4.20
2022-11-23T01:26:29.615Z,3.80
2022-11-23T01:27:29.618Z,3.60
2022-11-23T01:28:29.605Z,3.80
2022-11-23T01:29:29.838Z,3.40
2022-11-23T01:30:29.545Z,3.70
2022-11-23T01:31:29.578Z,3.30
2022-11-23T01:32:29.517Z,3.70
2022-11-23T01:33:29.511Z,3.30
2022-11-23T01:34:29.470Z,3.60
2022-11-23T01:35:29.502Z,3.40
2022-11-23T01:36:29.486Z,3.70
2022-11-23T01:37:29.423Z,3.40
2022-11-23T01:38:29.450Z,3.50
2022-11-23T01:39:29.771Z,3.70
2022-11-23T01:40:29.489Z,3.70
2022-11-23T01:41:29.427Z,3.30
2022-11-23T01:42:29.475Z,3.80
2022-11-23T01:43:29.452Z,3.40
2022-11-23T01:44:30.415Z,3.60
2022-11-23T01:45:29.334Z,3.20
2022-11-23T01:46:29.419Z,3.70
2022-11-23T01:47:29.396Z,3.20
2022-11-23T01:48:29.314Z,3.50
2022-11-23T01:49:29.566Z,3.60
2022-11-23T01:50:29.328Z,3.30
2022-11-23T01:51:29.255Z,3.60
2022-11-23T01:52:29.307Z,3.80
2022-11-23T01:53:29.296Z,3.30
2022-11-23T01:54:29.280Z,3.50
2022-11-23T01:55:29.259Z,3.70
2022-11-23T01:56:29.246Z,4.00
2022-11-23T01:57:29.297Z,3.40
2022-11-23T01:58:29.303Z,3.70
2022-11-23T01:59:29.716Z,3.80
2022-11-23T02:00:29.239Z,3.60
2022-11-23T02:01:29.236Z,3.70
2022-11-23T02:02:29.144Z,3.60
2022-11-23T02:03:29.232Z,3.50
2022-11-23T02:04:29.213Z,3.40
2022-11-23T02:05:29.232Z,3.50
2022-11-23T02:06:29.112Z,3.50
2022-11-23T02:07:29.356Z,3.90
2022-11-23T02:08:29.135Z,3.50
2022-11-23T02:09:29.481Z,3.50
2022-11-23T02:10:29.037Z,3.60
2022-11-23T02:11:29.009Z,3.60
2022-11-23T02:12:28.988Z,3.30
2022-11-23T02:13:28.992Z,3.60
2022-11-23T02:14:28.944Z,3.40
2022-11-23T02:15:28.940Z,3.00
2022-11-23T02:16:28.981Z,3.30
2022-11-23T02:17:28.933Z,3.10
2022-11-23T02:18:28.915Z,3.20
2022-11-23T02:19:29.362Z,3.30
2022-11-23T02:20:28.882Z,3.30
2022-11-23T02:21:28.901Z,3.10
2022-11-23T02:22:28.922Z,3.00
2022-11-23T02:23:28.850Z,3.50
2022-11-23T02:24:28.821Z,3.40
2022-11-23T02:25:28.873Z,3.00
2022-11-23T02:26:29.111Z,3.20
2022-11-23T02:27:28.919Z,3.20
2022-11-23T02:28:28.843Z,3.30
2022-11-23T02:29:29.061Z,3.00
2022-11-23T02:30:28.833Z,3.20
2022-11-23T02:31:28.777Z,2.60
2022-11-23T02:33:02.610Z,3.00
2022-11-23T02:33:28.835Z,2.90
2022-11-23T02:34:28.823Z,2.80
2022-11-23T02:35:28.969Z,3.00
2022-11-23T02:36:28.889Z,3.00
2022-11-23T02:37:28.782Z,3.10
2022-11-23T02:38:28.816Z,3.40
2022-11-23T02:39:29.004Z,3.10
2022-11-23T02:40:28.698Z,2.90
2022-11-23T02:41:28.786Z,2.80
2022-11-23T02:42:28.715Z,3.10
2022-11-23T02:43:28.691Z,3.00
2022-11-23T02:44:28.791Z,3.00
2022-11-23T02:45:28.706Z,3.30
2022-11-23T02:46:28.653Z,2.90
2022-11-23T02:47:28.664Z,3.20
2022-11-23T02:48:28.669Z,2.80
2022-11-23T02:49:28.665Z,2.90
2022-11-23T02:50:28.565Z,2.90
2022-11-23T02:51:28.609Z,2.70
2022-11-23T02:52:28.674Z,2.90
2022-11-23T02:53:28.534Z,3.00
2022-11-23T02:54:28.552Z,2.90
2022-11-23T02:55:28.523Z,2.90
2022-11-23T02:56:28.492Z,3.00
2022-11-23T02:57:28.502Z,3.00
2022-11-23T02:58:28.507Z,2.70
2022-11-23T02:59:28.597Z,3.00
2022-11-23T03:00:28.626Z,2.90
2022-11-23T03:01:28.418Z,2.70
2022-11-23T03:02:28.435Z,2.80
2022-11-23T03:03:28.430Z,3.10
2022-11-23T03:04:28.410Z,2.80
2022-11-23T03:05:28.472Z,2.90
2022-11-23T03:06:28.427Z,3.00
2022-11-23T03:07:28.398Z,2.80
2022-11-23T03:08:28.357Z,3.20
2022-11-23T03:09:29.310Z,2.70
2022-11-23T03:10:28.357Z,3.10
2022-11-23T03:11:28.343Z,3.00
2022-11-23T03:12:28.331Z,2.80
2022-11-23T03:13:28.297Z,3.20
2022-11-23T03:14:28.279Z,2.80
2022-11-23T03:15:28.299Z,2.90
2022-11-23T03:16:28.283Z,3.00
2022-11-23T03:17:28.322Z,3.30
2022-11-23T03:18:28.265Z,3.30
2022-11-23T03:19:28.259Z,3.60
2022-11-23T03:20:28.244Z,2.70
2022-11-23T03:21:28.289Z,3.40
2022-11-23T03:22:28.204Z,3.00
2022-11-23T03:23:28.247Z,3.00
2022-11-23T03:24:28.188Z,3.10
2022-11-23T03:25:28.228Z,3.40
2022-11-23T03:26:28.141Z,3.30
2022-11-23T03:27:28.156Z,2.80
2022-11-23T03:28:28.115Z,2.70
2022-11-23T03:29:28.121Z,3.20
2022-11-23T03:30:28.092Z,2.90
2022-11-23T03:31:28.075Z,2.90
2022-11-23T03:32:28.092Z,2.80
2022-11-23T03:33:28.109Z,2.90
2022-11-23T03:34:28.057Z,3.10
2022-11-23T03:35:29.041Z,2.90
2022-11-23T03:36:28.052Z,2.90
2022-11-23T03:37:28.056Z,2.90
2022-11-23T03:38:28.020Z,3.00
2022-11-23T03:39:28.060Z,2.90
2022-11-23T03:40:28.009Z,2.90
2022-11-23T03:41:28.004Z,3.00
2022-11-23T03:42:28.014Z,3.10
2022-11-23T03:43:27.939Z,3.10
2022-11-23T03:44:27.977Z,2.80
2022-11-23T03:45:27.966Z,2.70
2022-11-23T03:46:27.920Z,2.80
2022-11-23T03:47:28.012Z,2.60
2022-11-23T03:48:27.954Z,3.00
2022-11-23T03:49:27.881Z,2.80
2022-11-23T03:50:27.881Z,2.90
2022-11-23T03:51:27.881Z,2.70
2022-11-23T03:52:27.861Z,2.60
2022-11-23T03:53:27.872Z,3.00
2022-11-23T03:54:27.794Z,3.30
2022-11-23T03:55:27.849Z,3.20
2022-11-23T03:56:27.793Z,2.70
2022-11-23T03:57:27.746Z,3.20
2022-11-23T03:58:27.789Z,3.20
2022-11-23T03:59:27.761Z,3.00
2022-11-23T04:00:27.825Z,3.00
2022-11-23T04:01:27.750Z,2.80
2022-11-23T04:02:27.772Z,3.10
2022-11-23T04:03:27.730Z,3.20
2022-11-23T04:04:27.702Z,3.10
2022-11-23T04:05:27.715Z,3.20
2022-11-23T04:06:27.684Z,3.20
2022-11-23T04:07:27.731Z,3.10
2022-11-23T04:08:27.642Z,3.00
2022-11-23T04:09:27.650Z,3.20
2022-11-23T04:10:27.630Z,3.20
2022-11-23T04:11:27.619Z,3.70
2022-11-23T04:12:27.635Z,3.00
2022-11-23T04:13:27.624Z,3.10
2022-11-23T04:14:27.622Z,3.50
2022-11-23T04:15:27.552Z,3.10
2022-11-23T04:16:27.588Z,2.90
2022-11-23T04:17:27.573Z,3.40
2022-11-23T04:18:27.602Z,3.30
2022-11-23T04:19:27.541Z,3.40
2022-11-23T04:20:27.507Z,3.50
2022-11-23T04:21:27.512Z,3.50
2022-11-23T04:22:27.516Z,3.30
2022-11-23T04:23:27.520Z,3.50
2022-11-23T04:24:27.490Z,3.70
2022-11-23T04:25:27.482Z,3.40
2022-11-23T04:26:28.062Z,3.60
2022-11-23T04:27:27.480Z,3.50
2022-11-23T04:28:27.438Z,3.40
2022-11-23T04:29:27.416Z,3.60
2022-11-23T04:30:27.423Z,3.60
2022-11-23T04:31:27.429Z,3.50
2022-11-23T04:32:27.462Z,3.50
2022-11-23T04:33:27.394Z,3.50
2022-11-23T04:34:27.498Z,3.70
2022-11-23T04:35:27.341Z,3.80
2022-11-23T04:36:27.474Z,3.70
2022-11-23T04:37:27.359Z,4.00
2022-11-23T04:38:27.313Z,3.90
2022-11-23T04:39:28.176Z,3.80
2022-11-23T04:40:27.276Z,3.70
2022-11-23T04:41:28.051Z,3.60
2022-11-23T04:42:27.304Z,3.80
2022-11-23T04:43:27.350Z,3.50
2022-11-23T04:44:27.246Z,3.80
2022-11-23T04:45:27.228Z,3.70
2022-11-23T04:46:27.275Z,3.80
2022-11-23T04:47:27.212Z,3.90
2022-11-23T04:48:27.241Z,3.50
2022-11-23T04:49:27.225Z,3.70
2022-11-23T04:50:27.179Z,3.50
2022-11-23T04:51:27.159Z,3.80
2022-11-23T04:52:27.180Z,3.40
2022-11-23T04:53:27.109Z,3.80
2022-11-23T04:54:27.127Z,3.70
2022-11-23T04:55:27.228Z,3.80
2022-11-23T04:56:27.105Z,4.00
2022-11-23T04:57:27.115Z,4.00
2022-11-23T04:58:30.290Z,3.80
2022-11-23T04:59:27.087Z,3.70
2022-11-23T05:00:27.220Z,4.20
2022-11-23T05:01:27.128Z,4.10
2022-11-23T05:02:27.066Z,3.60
2022-11-23T05:03:27.000Z,3.60
2022-11-23T05:04:27.028Z,4.10
2022-11-23T05:05:26.984Z,3.70
2022-11-23T05:06:26.987Z,4.30
2022-11-23T05:07:27.056Z,4.20
2022-11-23T05:08:27.021Z,4.00
2022-11-23T05:09:26.923Z,4.00
2022-11-23T05:10:26.947Z,3.60
2022-11-23T05:11:26.940Z,4.10
2022-11-23T05:12:26.935Z,3.80
2022-11-23T05:13:26.946Z,4.00
2022-11-23T05:14:26.909Z,4.30
2022-11-23T05:15:26.905Z,3.90
2022-11-23T05:16:26.888Z,3.90
2022-11-23T05:17:26.903Z,3.80
2022-11-23T05:18:26.877Z,3.90
2022-11-23T05:19:26.824Z,4.10
2022-11-23T05:20:26.872Z,4.00
2022-11-23T05:21:26.798Z,3.60
2022-11-23T05:22:26.904Z,3.70
2022-11-23T05:23:26.812Z,3.70
2022-11-23T05:24:26.772Z,3.80
2022-11-23T05:25:26.773Z,3.80
2022-11-23T05:26:26.760Z,3.80
2022-11-23T05:27:26.708Z,4.30
2022-11-23T05:28:42.294Z,3.90
2022-11-23T05:29:28.752Z,4.00
2022-11-23T05:30:26.761Z,4.00
2022-11-23T05:31:26.729Z,3.80
2022-11-23T05:32:27.548Z,3.90
2022-11-23T05:33:26.696Z,3.90
2022-11-23T05:34:26.668Z,3.70
2022-11-23T05:35:26.644Z,3.90
2022-11-23T05:36:26.783Z,4.20
2022-11-23T05:37:26.633Z,4.00
2022-11-23T05:38:26.608Z,4.10
2022-11-23T05:39:26.654Z,4.10
2022-11-23T05:40:26.604Z,4.40
2022-11-23T05:41:26.610Z,4.00
2022-11-23T05:42:26.571Z,4.20
2022-11-23T05:43:26.756Z,4.30
2022-11-23T05:44:26.576Z,4.10
2022-11-23T05:45:26.586Z,4.10
2022-11-23T05:46:26.552Z,4.20
2022-11-23T05:47:26.545Z,4.10
2022-11-23T05:48:26.515Z,4.50
2022-11-23T05:49:26.511Z,4.20
2022-11-23T05:50:26.688Z,4.20
2022-11-23T05:51:26.471Z,4.10
2022-11-23T05:52:26.496Z,3.90
2022-11-23T05:53:26.520Z,4.40
2022-11-23T05:54:26.467Z,4.30
2022-11-23T05:55:26.454Z,4.10
2022-11-23T05:56:27.433Z,4.00
2022-11-23T05:57:26.449Z,4.10
2022-11-23T05:58:26.444Z,3.80
2022-11-23T05:59:26.405Z,3.80
2022-11-23T06:00:26.390Z,3.50
2022-11-23T06:01:27.133Z,4.20
2022-11-23T06:02:26.344Z,4.20
2022-11-23T06:03:26.366Z,4.30
2022-11-23T06:04:26.432Z,4.60
2022-11-23T06:05:26.308Z,4.50
2022-11-23T06:06:26.297Z,4.10
2022-11-23T06:07:26.364Z,4.70
2022-11-23T06:08:26.280Z,4.00
2022-11-23T06:09:26.260Z,4.10
2022-11-23T06:10:26.248Z,4.10
2022-11-23T06:11:26.391Z,4.40
2022-11-23T06:12:26.252Z,4.20
2022-11-23T06:13:26.220Z,4.00
2022-11-23T06:14:26.213Z,3.70
2022-11-23T06:15:26.354Z,4.20
2022-11-23T06:16:26.284Z,4.20
2022-11-23T06:17:26.243Z,4.60
2022-11-23T06:18:27.117Z,4.10
2022-11-23T06:19:26.142Z,4.00
2022-11-23T06:20:26.141Z,4.70
2022-11-23T06:21:26.161Z,3.90
2022-11-23T06:22:26.169Z,4.00
2022-11-23T06:23:26.637Z,4.10
2022-11-23T06:24:26.175Z,4.20
2022-11-23T06:25:26.177Z,3.80
2022-11-23T06:26:26.140Z,3.90
2022-11-23T06:27:26.063Z,4.70
2022-11-23T06:28:26.033Z,4.10
2022-11-23T06:29:26.098Z,4.10
2022-11-23T06:30:26.211Z,4.00
2022-11-23T06:31:26.674Z,4.20
2022-11-23T06:32:26.060Z,4.10
2022-11-23T06:33:25.970Z,4.60
2022-11-23T06:34:26.022Z,4.40
2022-11-23T06:35:25.986Z,4.40
2022-11-23T06:36:25.961Z,4.10
2022-11-23T06:37:25.960Z,4.40
2022-11-23T06:38:26.081Z,4.20
2022-11-23T06:39:25.928Z,4.20
2022-11-23T06:40:25.934Z,4.20
2022-11-23T06:41:30.873Z,4.40
2022-11-23T06:42:42.301Z,4.20
2022-11-23T06:43:27.891Z,4.20
2022-11-23T06:44:25.854Z,4.30
2022-11-23T06:45:25.844Z,4.50
2022-11-23T06:46:25.956Z,4.00
2022-11-23T06:47:26.657Z,4.70
2022-11-23T06:48:26.802Z,4.50
2022-11-23T06:49:25.792Z,4.40
2022-11-23T06:50:25.779Z,4.80
2022-11-23T06:51:25.846Z,4.60
2022-11-23T06:52:25.781Z,4.40
2022-11-23T06:53:25.742Z,4.20
2022-11-23T06:54:27.476Z,4.30
2022-11-23T06:55:25.730Z,4.30
2022-11-23T06:56:25.778Z,4.30
2022-11-23T06:57:25.767Z,4.40
2022-11-23T06:58:26.674Z,4.30
2022-11-23T06:59:25.721Z,4.30
2022-11-23T07:00:25.798Z,4.10
2022-11-23T07:01:25.712Z,4.50
2022-11-23T07:02:25.686Z,4.20
2022-11-23T07:03:26.737Z,4.40
2022-11-23T07:04:25.642Z,4.30
2022-11-23T07:05:25.679Z,4.30
2022-11-23T07:06:25.669Z,3.90
2022-11-23T07:07:25.644Z,4.10
2022-11-23T07:08:25.590Z,4.40
2022-11-23T07:09:25.554Z,4.20
2022-11-23T07:10:25.709Z,4.20
2022-11-23T07:11:25.637Z,4.10
2022-11-23T07:12:25.556Z,4.50
2022-11-23T07:13:25.534Z,4.30
2022-11-23T07:14:25.619Z,4.40
2022-11-23T07:15:25.595Z,4.30
2022-11-23T07:16:26.188Z,4.80
2022-11-23T07:17:25.507Z,4.40
2022-11-23T07:18:25.471Z,3.90
2022-11-23T07:19:25.488Z,4.30
2022-11-23T07:20:25.466Z,4.40
2022-11-23T07:21:26.172Z,4.60
2022-11-23T07:22:25.512Z,4.90
2022-11-23T07:23:25.438Z,4.40
2022-11-23T07:24:25.440Z,4.50
2022-11-23T07:25:25.484Z,4.20
2022-11-23T07:26:25.404Z,4.80
2022-11-23T07:27:25.403Z,4.20
2022-11-23T07:28:25.429Z,4.30
2022-11-23T07:29:25.417Z,4.20
2022-11-23T07:30:29.290Z,4.30
2022-11-23T07:31:26.371Z,4.40
2022-11-23T07:32:25.340Z,4.10
2022-11-23T07:33:25.317Z,4.30
2022-11-23T07:34:25.345Z,3.90
2022-11-23T07:35:25.338Z,4.50
2022-11-23T07:36:25.289Z,4.50
2022-11-23T07:37:25.257Z,4.30
2022-11-23T07:38:25.273Z,4.20
2022-11-23T07:39:36.606Z,4.20
2022-11-23T07:40:27.245Z,4.30
2022-11-23T07:41:25.266Z,4.50
2022-11-23T07:42:33.602Z,4.30
2022-11-23T07:43:27.220Z,4.10
2022-11-23T07:44:25.204Z,4.10
2022-11-23T07:45:25.213Z,4.00
2022-11-23T07:46:25.170Z,4.90
2022-11-23T07:47:26.150Z,5.10
2022-11-23T07:48:25.133Z,4.10
2022-11-23T07:49:25.179Z,4.40
2022-11-23T07:50:25.102Z,4.70
2022-11-23T07:51:25.149Z,4.30
2022-11-23T07:52:25.123Z,4.20
2022-11-23T07:53:25.067Z,4.10
2022-11-23T07:54:25.100Z,4.60
2022-11-23T07:55:25.023Z,4.30
2022-11-23T07:56:25.064Z,4.20
2022-11-23T07:57:25.115Z,4.20
2022-11-23T07:58:25.035Z,4.10
2022-11-23T07:59:25.042Z,4.00
2022-11-23T08:00:25.072Z,4.00
2022-11-23T08:01:24.999Z,4.50
2022-11-23T08:02:25.018Z,3.70
2022-11-23T08:03:29.025Z,4.10
2022-11-23T08:04:25.965Z,4.20
2022-11-23T08:05:25.037Z,4.60
2022-11-23T08:06:24.931Z,4.00
2022-11-23T08:07:24.993Z,4.30
2022-11-23T08:08:24.943Z,3.90
2022-11-23T08:09:24.923Z,3.80
2022-11-23T08:10:24.953Z,3.60
2022-11-23T08:11:24.882Z,4.10
2022-11-23T08:12:24.865Z,3.90
2022-11-23T08:13:24.840Z,3.60
2022-11-23T08:14:24.833Z,3.80
2022-11-23T08:15:24.854Z,3.80
2022-11-23T08:16:24.827Z,3.90
2022-11-23T08:17:24.822Z,3.30
2022-11-23T08:18:24.803Z,3.70
2022-11-23T08:19:24.803Z,3.70
2022-11-23T08:20:24.911Z,3.40
2022-11-23T08:21:24.747Z,3.70
2022-11-23T08:22:24.775Z,3.80
2022-11-23T08:23:24.721Z,4.00
2022-11-23T08:24:24.701Z,3.70
2022-11-23T08:25:24.742Z,4.00
2022-11-23T08:26:24.705Z,3.80
2022-11-23T08:27:24.712Z,3.60
2022-11-23T08:28:24.792Z,3.90
2022-11-23T08:29:24.660Z,4.00
2022-11-23T08:30:24.833Z,4.10
2022-11-23T08:31:24.708Z,4.00
2022-11-23T08:32:24.645Z,3.90
2022-11-23T08:33:24.651Z,4.10
2022-11-23T08:34:24.895Z,4.10
2022-11-23T08:35:24.636Z,3.70
2022-11-23T08:36:24.607Z,4.10
2022-11-23T08:37:25.175Z,3.90
2022-11-23T08:38:24.619Z,4.20
2022-11-23T08:39:24.530Z,4.20
2022-11-23T08:40:25.775Z,3.80
2022-11-23T08:41:25.620Z,3.90
2022-11-23T08:42:24.516Z,4.00
2022-11-23T08:43:24.538Z,4.30
2022-11-23T08:44:24.577Z,4.20
2022-11-23T08:45:24.542Z,3.70
2022-11-23T08:46:24.459Z,3.80
2022-11-23T08:47:24.505Z,4.10
2022-11-23T08:48:24.483Z,3.60
2022-11-23T08:49:24.549Z,3.90
2022-11-23T08:50:24.517Z,3.70
2022-11-23T08:51:24.413Z,3.70
2022-11-23T08:52:24.436Z,3.60
2022-11-23T08:53:24.494Z,4.00
2022-11-23T08:54:24.388Z,3.70
2022-11-23T08:55:24.423Z,3.60
2022-11-23T08:56:24.366Z,3.70
2022-11-23T08:57:24.364Z,4.00
2022-11-23T08:58:24.374Z,4.10
2022-11-23T08:59:24.406Z,3.70
2022-11-23T09:00:24.346Z,3.60
2022-11-23T09:01:24.339Z,3.70
2022-11-23T09:02:24.335Z,3.90
2022-11-23T09:03:24.334Z,3.70
2022-11-23T09:04:24.284Z,3.80
2022-11-23T09:05:24.297Z,3.70
2022-11-23T09:06:24.266Z,3.70
2022-11-23T09:07:24.318Z,3.80
2022-11-23T09:08:24.264Z,3.80
2022-11-23T09:09:24.227Z,4.10
2022-11-23T09:10:24.299Z,4.00
2022-11-23T09:11:24.691Z,4.00
2022-11-23T09:12:24.207Z,3.80
2022-11-23T09:13:24.175Z,4.00
2022-11-23T09:14:24.192Z,4.10
2022-11-23T09:15:24.149Z,3.80
2022-11-23T09:16:24.196Z,3.70
2022-11-23T09:17:24.140Z,4.20
2022-11-23T09:18:24.153Z,4.00
2022-11-23T09:19:24.082Z,3.90
2022-11-23T09:20:24.084Z,3.70
2022-11-23T09:21:24.159Z,3.60
2022-11-23T09:22:24.106Z,3.80
2022-11-23T09:23:24.094Z,3.80
2022-11-23T09:24:24.101Z,3.70
2022-11-23T09:25:24.028Z,3.80
2022-11-23T09:26:24.044Z,4.00
2022-11-23T09:27:24.136Z,4.30
2022-11-23T09:28:24.017Z,3.90
2022-11-23T09:29:24.020Z,3.80
2022-11-23T09:30:24.038Z,3.60
2022-11-23T09:31:23.998Z,3.90
2022-11-23T09:32:23.978Z,4.00
2022-11-23T09:33:23.975Z,3.60
2022-11-23T09:34:24.001Z,3.80
2022-11-23T09:35:23.948Z,3.60
2022-11-23T09:36:23.927Z,3.60
2022-11-23T09:37:23.885Z,3.50
2022-11-23T09:38:44.462Z,3.70
2022-11-23T09:39:24.912Z,3.70
2022-11-23T09:40:23.994Z,3.50
2022-11-23T09:41:23.868Z,3.50
2022-11-23T09:42:23.848Z,3.60
2022-11-23T09:43:23.892Z,3.50
2022-11-23T09:44:23.844Z,3.60
2022-11-23T09:45:23.842Z,3.80
2022-11-23T09:46:23.856Z,3.60
2022-11-23T09:47:23.840Z,3.50
2022-11-23T09:48:23.994Z,3.60
2022-11-23T09:49:23.799Z,3.60
2022-11-23T09:50:23.779Z,3.40
2022-11-23T09:51:23.770Z,3.70
2022-11-23T09:52:23.780Z,3.60
2022-11-23T09:53:23.897Z,3.60
2022-11-23T09:54:23.787Z,3.50
2022-11-23T09:55:23.719Z,3.70
2022-11-23T09:56:23.699Z,3.90
2022-11-23T09:57:23.682Z,3.90
2022-11-23T09:58:23.723Z,3.40
2022-11-23T09:59:23.658Z,3.60
2022-11-23T10:00:23.662Z,4.20
2022-11-23T10:01:23.690Z,4.00
2022-11-23T10:02:23.673Z,3.80
2022-11-23T10:03:23.631Z,3.70
2022-11-23T10:04:23.611Z,3.90
2022-11-23T10:05:23.610Z,3.70
2022-11-23T10:06:23.696Z,3.50
2022-11-23T10:07:23.640Z,3.30
2022-11-23T10:08:23.568Z,3.80
2022-11-23T10:09:23.667Z,3.90
2022-11-23T10:10:23.598Z,3.50
2022-11-23T10:11:23.638Z,3.30
2022-11-23T10:12:23.620Z,3.50
2022-11-23T10:13:23.600Z,3.80
2022-11-23T10:14:23.544Z,3.60
2022-11-23T10:15:23.543Z,3.60
2022-11-23T10:16:23.575Z,4.10
2022-11-23T10:17:23.615Z,3.90
2022-11-23T10:18:23.447Z,3.60
2022-11-23T10:19:23.512Z,3.60
2022-11-23T10:20:23.501Z,3.60
2022-11-23T10:21:23.479Z,3.80
2022-11-23T10:22:23.504Z,3.50
2022-11-23T10:23:23.507Z,3.70
2022-11-23T10:24:23.442Z,3.70
2022-11-23T10:25:23.442Z,3.50
2022-11-23T10:26:23.397Z,3.80
2022-11-23T10:27:23.441Z,3.40
2022-11-23T10:28:23.381Z,3.60
2022-11-23T10:29:23.498Z,3.60
2022-11-23T10:30:23.361Z,3.50
2022-11-23T10:31:23.450Z,3.60
2022-11-23T10:32:24.190Z,3.40
2022-11-23T10:33:23.342Z,3.50
2022-11-23T10:34:23.294Z,3.60
2022-11-23T10:35:23.387Z,3.40
2022-11-23T10:36:23.300Z,3.50
2022-11-23T10:37:23.347Z,3.20
2022-11-23T10:38:23.323Z,3.30
2022-11-23T10:39:23.262Z,3.20
2022-11-23T10:40:23.343Z,3.10
2022-11-23T10:41:24.228Z,3.10
2022-11-23T10:42:23.224Z,3.50
2022-11-23T10:43:23.244Z,3.50
2022-11-23T10:44:23.196Z,3.10
2022-11-23T10:45:23.172Z,3.40
2022-11-23T10:46:23.172Z,3.70
2022-11-23T10:47:23.201Z,3.10
2022-11-23T10:48:23.198Z,3.30
2022-11-23T10:49:23.190Z,3.40
2022-11-23T10:50:23.164Z,3.40
2022-11-23T10:51:23.153Z,3.40
2022-11-23T10:52:23.115Z,3.40
2022-11-23T10:53:23.134Z,3.30
2022-11-23T10:54:23.271Z,3.60
2022-11-23T10:55:23.082Z,3.40
2022-11-23T10:56:23.051Z,3.50
2022-11-23T10:57:23.108Z,3.20
2022-11-23T10:58:23.018Z,3.70
2022-11-23T10:59:23.039Z,3.70
2022-11-23T11:00:28.729Z,3.40
2022-11-23T11:01:25.003Z,3.30
2022-11-23T11:02:22.959Z,3.70
2022-11-23T11:03:23.042Z,3.00
2022-11-23T11:04:23.005Z,2.90
2022-11-23T11:05:35.474Z,2.90
2022-11-23T11:06:23.953Z,3.20
2022-11-23T11:07:23.127Z,3.20
2022-11-23T11:08:22.939Z,3.20
2022-11-23T11:09:22.920Z,3.20
2022-11-23T11:10:22.877Z,2.90
2022-11-23T11:11:22.908Z,2.90
2022-11-23T11:12:22.876Z,3.30
2022-11-23T11:13:22.916Z,3.60
2022-11-23T11:14:22.948Z,3.10
2022-11-23T11:15:22.833Z,3.10
2022-11-23T11:16:22.828Z,3.20
2022-11-23T11:17:22.845Z,3.40
2022-11-23T11:18:22.800Z,3.00
2022-11-23T11:19:22.857Z,3.10
2022-11-23T11:20:22.808Z,3.40
2022-11-23T11:21:22.752Z,3.00
2022-11-23T11:22:22.721Z,3.00
2022-11-23T11:23:22.717Z,2.90
2022-11-23T11:24:22.773Z,2.90
2022-11-23T11:25:22.765Z,2.70
2022-11-23T11:26:22.684Z,2.90
2022-11-23T11:27:22.705Z,2.60
2022-11-23T11:28:22.737Z,2.90
2022-11-23T11:29:22.699Z,2.90
2022-11-23T11:30:22.701Z,3.10
2022-11-23T11:31:22.636Z,3.10
2022-11-23T11:32:22.695Z,3.00
2022-11-23T11:33:22.610Z,2.80
2022-11-23T11:34:22.632Z,2.80
2022-11-23T11:35:22.716Z,3.30
2022-11-23T11:36:22.624Z,2.90
2022-11-23T11:37:22.601Z,2.70
2022-11-23T11:38:22.613Z,3.10
2022-11-23T11:39:22.589Z,2.70
2022-11-23T11:40:22.542Z,3.40
2022-11-23T11:41:22.604Z,2.80
2022-11-23T11:42:22.552Z,3.20
2022-11-23T11:43:29.248Z,3.30
2022-11-23T11:44:24.553Z,3.10
2022-11-23T11:45:22.518Z,2.90
2022-11-23T11:46:30.348Z,3.10
2022-11-23T11:47:24.525Z,3.50
2022-11-23T11:48:22.474Z,3.20
2022-11-23T11:49:22.451Z,2.90
2022-11-23T11:50:27.123Z,2.90
2022-11-23T11:51:23.576Z,2.80
2022-11-23T11:52:22.454Z,2.90
2022-11-23T11:53:22.543Z,3.10
2022-11-23T11:54:22.462Z,2.90
2022-11-23T11:55:22.410Z,3.30
2022-11-23T11:56:22.467Z,2.90
2022-11-23T11:57:22.455Z,3.00
2022-11-23T11:58:22.373Z,3.30
2022-11-23T11:59:22.460Z,3.10
2022-11-23T12:00:22.359Z,2.70
2022-11-23T12:01:22.480Z,2.70
2022-11-23T12:02:22.315Z,2.80
2022-11-23T12:03:22.315Z,3.00
2022-11-23T12:04:22.466Z,3.30
2022-11-23T12:05:22.337Z,3.00
2022-11-23T12:06:26.535Z,3.00
2022-11-23T12:07:22.347Z,2.90
2022-11-23T12:08:23.135Z,3.00
2022-11-23T12:09:22.315Z,3.30
2022-11-23T12:10:22.208Z,2.90
2022-11-23T12:11:22.210Z,3.10
2022-11-23T12:12:28.203Z,3.00
2022-11-23T12:13:24.193Z,2.90
2022-11-23T12:14:22.204Z,2.90
2022-11-23T12:15:51.138Z,3.20
2022-11-23T12:16:24.135Z,3.00
2022-11-23T12:17:32.895Z,2.80
2022-11-23T12:18:24.161Z,2.90
2022-11-23T12:19:22.106Z,3.10
2022-11-23T12:20:22.135Z,2.90
2022-11-23T12:21:22.146Z,3.00
2022-11-23T12:22:22.085Z,3.00
2022-11-23T12:23:22.068Z,2.90
2022-11-23T12:24:22.095Z,3.20
2022-11-23T12:25:22.082Z,3.10
2022-11-23T12:26:22.047Z,3.10
2022-11-23T12:27:22.046Z,3.60
2022-11-23T12:28:21.996Z,3.50
2022-11-23T12:29:22.001Z,3.00
2022-11-23T12:30:22.021Z,3.40
2022-11-23T12:31:22.017Z,3.10
2022-11-23T12:32:21.935Z,3.40
2022-11-23T12:33:21.989Z,3.00
2022-11-23T12:34:22.010Z,3.00
2022-11-23T12:35:21.928Z,3.10
2022-11-23T12:36:23.769Z,3.20
2022-11-23T12:37:22.951Z,3.20
2022-11-23T12:38:21.956Z,3.40
2022-11-23T12:39:21.902Z,3.30
2022-11-23T12:40:21.996Z,2.80
2022-11-23T12:41:21.907Z,3.20
2022-11-23T12:42:21.944Z,3.10
2022-11-23T12:43:21.849Z,3.20
2022-11-23T12:44:21.857Z,3.20
2022-11-23T12:45:21.848Z,3.20
2022-11-23T12:46:21.878Z,2.90
2022-11-23T12:47:22.655Z,3.70
2022-11-23T12:48:21.775Z,3.20
2022-11-23T12:49:21.810Z,3.40
2022-11-23T12:50:21.763Z,3.20
2022-11-23T12:51:21.814Z,2.90
2022-11-23T12:52:22.015Z,3.00
2022-11-23T12:53:21.801Z,3.10
2022-11-23T12:54:21.758Z,2.90
2022-11-23T12:55:21.783Z,3.30
2022-11-23T12:56:21.783Z,3.00
2022-11-23T12:57:21.807Z,2.60
2022-11-23T12:58:21.783Z,2.90
2022-11-23T12:59:21.778Z,3.00
2022-11-23T13:00:21.656Z,2.70
2022-11-23T13:01:25.098Z,2.80
2022-11-23T13:02:22.859Z,3.40
2022-11-23T13:03:21.634Z,2.60
2022-11-23T13:04:21.683Z,3.10
2022-11-23T13:05:56.071Z,3.40
2022-11-23T13:06:21.678Z,2.80
2022-11-23T13:07:35.429Z,2.80
2022-11-23T13:08:23.751Z,2.90
2022-11-23T13:09:21.768Z,3.00
2022-11-23T13:10:21.825Z,3.10
2022-11-23T13:11:21.633Z,3.10
2022-11-23T13:12:21.619Z,2.90
2022-11-23T13:13:21.717Z,3.00
2022-11-23T13:14:21.595Z,3.10
2022-11-23T13:15:21.638Z,2.80
2022-11-23T13:16:21.746Z,2.70
2022-11-23T13:17:21.688Z,2.70
2022-11-23T13:18:21.549Z,2.90